createdAt,value
2019-01-08T00:00:19.142Z,97946.36
2019-01-08T00:02:48.505Z,97943.49
2019-01-08T00:05:17.863Z,97942.08
2019-01-08T00:07:47.239Z,97942.39
2019-01-08T00:10:16.607Z,97930.48
2019-01-08T00:12:45.981Z,97922.63
2019-01-08T00:15:15.347Z,97914.09
2019-01-08T00:17:44.792Z,97920.93
2019-01-08T00:20:14.142Z,97910.50
2019-01-08T00:22:43.496Z,97908.36
2019-01-08T00:25:12.835Z,97897.23
2019-01-08T00:27:42.184Z,97902.06
2019-01-08T00:30:11.547Z,97894.58
2019-01-08T00:32:40.906Z,97886.10
2019-01-08T00:35:10.290Z,97881.31
2019-01-08T00:37:39.640Z,97869.82
2019-01-08T00:40:09.066Z,97865.78
2019-01-08T00:42:38.427Z,97871.03
2019-01-08T00:45:07.797Z,97856.31
2019-01-08T00:47:37.143Z,97859.25
2019-01-08T00:50:06.620Z,97845.70
2019-01-08T00:52:35.991Z,97846.91
2019-01-08T00:55:05.411Z,97836.11
2019-01-08T00:57:34.769Z,97828.28
2019-01-08T01:00:04.229Z,97817.88
2019-01-08T01:02:33.583Z,97819.48
2019-01-08T01:05:02.989Z,97810.83
2019-01-08T01:07:32.345Z,97803.47
2019-01-08T01:10:01.712Z,97810.02
2019-01-08T01:12:31.055Z,97801.41
2019-01-08T01:15:00.430Z,97786.05
2019-01-08T01:17:29.777Z,97778.31
2019-01-08T01:19:59.136Z,97774.02
2019-01-08T01:22:28.489Z,97761.13
2019-01-08T01:24:57.840Z,97749.03
2019-01-08T01:27:27.270Z,97746.58
2019-01-08T01:29:56.647Z,97747.28
2019-01-08T01:32:26.021Z,97738.09
2019-01-08T01:34:55.398Z,97727.34
2019-01-08T01:37:24.772Z,97724.48
2019-01-08T01:39:54.133Z,97719.39
2019-01-08T01:42:23.478Z,97709.96
2019-01-08T01:44:52.850Z,97701.45
2019-01-08T01:47:22.208Z,97698.97
2019-01-08T01:49:51.588Z,97684.50
2019-01-08T01:52:20.942Z,97680.28
2019-01-08T01:54:50.274Z,97670.70
2019-01-08T01:57:19.643Z,97662.56
2019-01-08T01:59:48.989Z,97652.91
2019-01-08T02:02:18.352Z,97658.89
2019-01-08T02:04:49.111Z,97655.58
2019-01-08T02:07:18.467Z,97654.06
2019-01-08T02:09:47.854Z,97639.95
2019-01-08T02:12:17.315Z,97638.05
2019-01-08T02:14:46.668Z,97632.52
2019-01-08T02:17:16.046Z,97619.49
2019-01-08T02:19:45.401Z,97620.94
2019-01-08T02:22:14.759Z,97607.75
2019-01-08T02:24:44.106Z,97597.80
2019-01-08T02:27:13.473Z,97600.01
2019-01-08T02:29:42.816Z,97597.27
2019-01-08T02:32:12.230Z,97586.93
2019-01-08T02:34:41.588Z,97585.70
2019-01-08T02:37:11.027Z,97584.09
2019-01-08T02:39:40.390Z,97571.14
2019-01-08T02:42:09.754Z,97571.60
2019-01-08T02:44:39.207Z,97563.54
2019-01-08T02:47:08.644Z,97564.14
2019-01-08T02:49:38.002Z,97560.06
2019-01-08T02:52:07.366Z,97551.69
2019-01-08T02:54:36.804Z,97546.48
2019-01-08T02:57:06.200Z,97541.66
2019-01-08T02:59:35.577Z,97524.13
2019-01-08T03:02:05.124Z,97515.43
2019-01-08T03:04:34.470Z,97508.24
2019-01-08T03:07:03.834Z,97501.91
2019-01-08T03:09:38.149Z,97497.08
2019-01-08T03:12:07.585Z,97487.86
2019-01-08T03:14:37.013Z,97473.02
2019-01-08T03:17:06.377Z,97470.09
2019-01-08T03:19:35.770Z,97456.39
2019-01-08T03:22:05.189Z,97449.23
2019-01-08T03:24:34.551Z,97440.22
2019-01-08T03:27:03.892Z,97430.15
2019-01-08T03:29:33.778Z,97422.35
2019-01-08T03:32:03.363Z,97419.40
2019-01-08T03:34:32.728Z,97408.78
2019-01-08T03:37:02.081Z,97405.16
2019-01-08T03:39:31.456Z,97406.48
2019-01-08T03:42:00.890Z,97385.52
2019-01-08T03:44:30.398Z,97381.57
2019-01-08T03:46:59.782Z,97383.43
2019-01-08T03:49:29.140Z,97377.92
2019-01-08T03:51:58.508Z,97368.30
2019-01-08T03:54:27.966Z,97369.45
2019-01-08T03:56:57.310Z,97358.09
2019-01-08T03:59:26.685Z,97359.55
2019-01-08T04:01:56.033Z,97351.52
2019-01-08T04:04:25.390Z,97347.45
2019-01-08T04:06:54.748Z,97334.13
2019-01-08T04:09:24.179Z,97321.27
2019-01-08T04:11:53.528Z,97321.35
2019-01-08T04:14:22.899Z,97312.70
2019-01-08T04:16:52.263Z,97311.09
2019-01-08T04:19:21.646Z,97305.18
2019-01-08T04:21:50.987Z,97297.45
2019-01-08T04:24:20.361Z,97300.20
2019-01-08T04:26:49.731Z,97299.99
2019-01-08T04:29:19.088Z,97291.89
2019-01-08T04:31:48.432Z,97279.01
2019-01-08T04:34:17.817Z,97277.81
2019-01-08T04:36:47.161Z,97282.51
2019-01-08T04:39:16.512Z,97263.84
2019-01-08T04:41:45.865Z,97275.95
2019-01-08T04:44:15.236Z,97259.31
2019-01-08T04:46:44.572Z,97261.22
2019-01-08T04:49:13.941Z,97255.44
2019-01-08T04:51:43.307Z,97252.11
2019-01-08T04:54:12.698Z,97242.16
2019-01-08T04:56:42.077Z,97232.00
2019-01-08T04:59:11.457Z,97239.07
2019-01-08T05:01:40.824Z,97235.75
2019-01-08T05:04:10.190Z,97222.17
2019-01-08T05:06:39.564Z,97221.62
2019-01-08T05:09:08.986Z,97216.34
2019-01-08T05:11:38.462Z,97216.88
2019-01-08T05:14:07.901Z,97219.63
2019-01-08T05:16:37.268Z,97199.03
2019-01-08T05:19:06.674Z,97211.06
2019-01-08T05:21:36.047Z,97213.12
2019-01-08T05:24:05.469Z,97205.70
2019-01-08T05:26:34.839Z,97196.55
2019-01-08T05:29:04.178Z,97183.96
2019-01-08T05:31:33.611Z,97196.94
2019-01-08T05:34:02.976Z,97190.80
2019-01-08T05:36:32.418Z,97173.16
2019-01-08T05:39:01.782Z,97181.31
2019-01-08T05:41:31.149Z,97175.30
2019-01-08T05:44:00.528Z,97177.00
2019-01-08T05:46:29.945Z,97167.32
2019-01-08T05:48:59.274Z,97154.91
2019-01-08T05:51:28.735Z,97172.18
2019-01-08T05:53:58.082Z,97168.86
2019-01-08T05:56:27.448Z,97155.45
2019-01-08T05:58:56.850Z,97156.56
2019-01-08T06:01:26.194Z,97166.63
2019-01-08T06:03:55.548Z,97165.08
2019-01-08T06:06:24.914Z,97162.11
2019-01-08T06:08:54.328Z,97156.43
2019-01-08T06:11:23.687Z,97160.30
2019-01-08T06:13:53.019Z,97148.34
2019-01-08T06:16:22.468Z,97136.89
2019-01-08T06:18:51.814Z,97151.82
2019-01-08T06:21:21.569Z,97140.02
2019-01-08T06:23:50.924Z,97136.95
2019-01-08T06:26:20.270Z,97134.23
2019-01-08T06:28:49.700Z,97129.53
2019-01-08T06:31:19.064Z,97136.70
2019-01-08T06:33:48.461Z,97141.69
2019-01-08T06:36:17.809Z,97134.61
2019-01-08T06:38:47.174Z,97129.92
2019-01-08T06:41:16.555Z,97131.22
2019-01-08T06:43:45.922Z,97125.17
2019-01-08T06:46:15.277Z,97115.69
2019-01-08T06:48:44.666Z,97116.98
2019-01-08T06:51:14.052Z,97115.42
2019-01-08T06:53:43.461Z,97119.52
2019-01-08T06:56:14.734Z,97115.98
2019-01-08T06:58:44.097Z,97115.50
2019-01-08T07:01:13.459Z,97105.51
2019-01-08T07:03:42.818Z,97127.23
2019-01-08T07:06:12.206Z,97122.09
2019-01-08T07:08:41.631Z,97128.78
2019-01-08T07:11:11.000Z,97129.17
2019-01-08T07:13:40.394Z,97129.09
2019-01-08T07:16:09.754Z,97122.98
2019-01-08T07:18:39.136Z,97130.52
2019-01-08T07:21:08.484Z,97135.08
2019-01-08T07:23:37.835Z,97134.42
2019-01-08T07:26:07.201Z,97129.34
2019-01-08T07:28:36.568Z,97122.38
2019-01-08T07:31:05.928Z,97133.16
2019-01-08T07:33:35.285Z,97142.23
2019-01-08T07:36:04.664Z,97140.61
2019-01-08T07:38:34.015Z,97138.23
2019-01-08T07:41:03.362Z,97127.69
2019-01-08T07:43:32.997Z,97131.61
2019-01-08T07:46:02.346Z,97129.98
2019-01-08T07:48:31.709Z,97128.56
2019-01-08T07:51:01.082Z,97126.20
2019-01-08T07:53:30.448Z,97127.09
2019-01-08T07:55:59.862Z,97124.17
2019-01-08T07:58:29.205Z,97117.52
2019-01-08T08:00:58.583Z,97110.66
2019-01-08T08:03:27.940Z,97120.66
2019-01-08T08:05:57.337Z,97106.20
2019-01-08T08:08:26.713Z,97112.25
2019-01-08T08:10:56.150Z,97114.95
2019-01-08T08:13:25.509Z,97119.73
2019-01-08T08:15:54.955Z,97118.38
2019-01-08T08:18:24.449Z,97108.00
2019-01-08T08:20:53.967Z,97108.34
2019-01-08T08:23:23.325Z,97109.00
2019-01-08T08:25:52.779Z,97118.25
2019-01-08T08:28:22.207Z,97097.67
2019-01-08T08:30:58.710Z,97096.95
2019-01-08T08:33:22.686Z,97107.59
2019-01-08T08:35:52.120Z,97103.34
2019-01-08T08:38:21.575Z,97089.58
2019-01-08T08:40:50.991Z,97086.11
2019-01-08T08:43:20.349Z,97084.69
2019-01-08T08:45:49.778Z,97083.20
2019-01-08T08:48:19.269Z,97073.69
2019-01-08T08:50:48.622Z,97074.23
2019-01-08T08:53:18.225Z,97077.09
2019-01-08T08:55:47.573Z,97074.61
2019-01-08T08:58:17.058Z,97101.20
2019-01-08T09:00:46.409Z,97094.70
2019-01-08T09:03:15.840Z,97087.97
2019-01-08T09:05:45.292Z,97077.73
2019-01-08T09:08:14.828Z,97076.77
2019-01-08T09:10:44.198Z,97077.27
2019-01-08T09:13:13.702Z,97076.02
2019-01-08T09:15:43.125Z,97085.86
2019-01-08T09:18:12.684Z,97080.91
2019-01-08T09:20:42.079Z,97082.99
2019-01-08T09:23:11.490Z,97082.94
2019-01-08T09:25:40.985Z,97086.19
2019-01-08T09:28:10.741Z,97085.56
2019-01-08T09:30:40.166Z,97079.17
2019-01-08T09:33:09.509Z,97081.45
2019-01-08T09:35:38.877Z,97071.38
2019-01-08T09:38:08.314Z,97082.52
2019-01-08T09:40:37.691Z,97081.66
2019-01-08T09:43:07.388Z,97078.89
2019-01-08T09:45:36.868Z,97082.09
2019-01-08T09:48:06.242Z,97079.86
2019-01-08T09:50:35.678Z,97078.09
2019-01-08T09:53:05.094Z,97086.81
2019-01-08T09:55:34.475Z,97092.58
2019-01-08T09:58:03.838Z,97087.20
2019-01-08T10:00:33.198Z,97080.48
2019-01-08T10:03:02.573Z,97074.33
2019-01-08T10:05:31.933Z,97071.20
2019-01-08T10:08:01.306Z,97074.97
2019-01-08T10:10:30.754Z,97075.19
2019-01-08T10:13:00.111Z,97059.19
2019-01-08T10:15:29.719Z,97060.02
2019-01-08T10:17:59.085Z,97060.20
2019-01-08T10:20:28.456Z,97051.37
2019-01-08T10:22:57.799Z,97048.17
2019-01-08T10:25:27.247Z,97030.04
2019-01-08T10:27:56.591Z,97027.10
2019-01-08T10:30:25.955Z,97031.00
2019-01-08T10:32:55.394Z,97021.33
2019-01-08T10:35:24.784Z,97018.91
2019-01-08T10:37:54.140Z,97013.14
2019-01-08T10:40:23.509Z,97007.35
2019-01-08T10:42:52.961Z,97005.87
2019-01-08T10:45:22.403Z,96998.99
2019-01-08T10:47:51.816Z,96995.05
2019-01-08T10:50:21.355Z,96992.30
2019-01-08T10:52:50.731Z,96994.50
2019-01-08T10:55:20.175Z,96984.36
2019-01-08T10:57:49.542Z,96978.11
2019-01-08T11:00:19.015Z,96972.20
2019-01-08T11:02:48.445Z,96974.62
2019-01-08T11:05:17.800Z,96960.64
2019-01-08T11:07:47.153Z,96971.17
2019-01-08T11:10:16.743Z,96960.96
2019-01-08T11:12:46.313Z,96956.98
2019-01-08T11:15:15.696Z,96951.00
2019-01-08T11:17:45.071Z,96949.77
2019-01-08T11:20:14.422Z,96937.96
2019-01-08T11:22:43.846Z,96929.87
2019-01-08T11:25:13.190Z,96918.16
2019-01-08T11:27:42.540Z,96918.71
2019-01-08T11:30:11.909Z,96906.05
2019-01-08T11:32:41.270Z,96906.16
2019-01-08T11:35:11.018Z,96900.20
2019-01-08T11:37:40.471Z,96890.06
2019-01-08T11:40:09.899Z,96889.60
2019-01-08T11:42:39.259Z,96877.33
2019-01-08T11:45:09.699Z,96891.84
2019-01-08T11:47:39.137Z,96875.19
2019-01-08T11:50:08.513Z,96866.35
2019-01-08T11:52:37.889Z,96857.31
2019-01-08T11:55:07.485Z,96861.80
2019-01-08T11:57:36.891Z,96855.10
2019-01-08T12:00:08.512Z,96846.30
2019-01-08T12:02:37.919Z,96846.73
2019-01-08T12:05:07.349Z,96840.04
2019-01-08T12:07:36.700Z,96840.55
2019-01-08T12:10:06.311Z,96824.88
2019-01-08T12:12:35.745Z,96819.62
2019-01-08T12:15:05.295Z,96823.78
2019-01-08T12:17:34.643Z,96816.45
2019-01-08T12:20:04.976Z,96822.72
2019-01-08T12:22:40.824Z,96815.03
2019-01-08T12:25:08.033Z,96818.80
2019-01-08T12:27:37.781Z,96815.45
2019-01-08T12:30:08.618Z,96814.14
2019-01-08T12:32:38.277Z,96812.75
2019-01-08T12:35:07.773Z,96821.26
2019-01-08T12:37:37.209Z,96819.48
2019-01-08T12:40:06.723Z,96802.25
2019-01-08T12:42:36.103Z,96794.54
2019-01-08T12:45:06.260Z,96801.41
2019-01-08T12:47:35.612Z,96799.58
2019-01-08T12:50:05.376Z,96803.05
2019-01-08T12:52:34.737Z,96799.78
2019-01-08T12:55:04.160Z,96794.58
2019-01-08T12:57:33.545Z,96795.91
2019-01-08T13:00:02.958Z,96776.37
2019-01-08T13:02:32.305Z,96782.73
2019-01-08T13:05:01.677Z,96777.34
2019-01-08T13:07:31.076Z,96771.78
2019-01-08T13:10:00.455Z,96773.56
2019-01-08T13:12:29.865Z,96773.38
2019-01-08T13:14:59.229Z,96775.34
2019-01-08T13:17:28.564Z,96775.52
2019-01-08T13:19:57.924Z,96767.12
2019-01-08T13:22:27.277Z,96769.23
2019-01-08T13:24:56.634Z,96752.53
2019-01-08T13:27:26.045Z,96761.63
2019-01-08T13:29:55.397Z,96764.16
2019-01-08T13:32:24.757Z,96759.91
2019-01-08T13:34:54.233Z,96757.84
2019-01-08T13:37:23.597Z,96761.83
2019-01-08T13:39:53.073Z,96754.39
2019-01-08T13:42:22.415Z,96758.11
2019-01-08T13:44:51.775Z,96741.13
2019-01-08T13:47:21.153Z,96740.55
2019-01-08T13:49:50.533Z,96741.02
2019-01-08T13:52:19.895Z,96758.02
2019-01-08T13:54:49.255Z,96746.22
2019-01-08T13:57:18.631Z,96750.03
2019-01-08T13:59:47.993Z,96753.47
2019-01-08T14:02:17.414Z,96758.20
2019-01-08T14:04:46.759Z,96744.83
2019-01-08T14:07:16.193Z,96734.55
2019-01-08T14:09:45.566Z,96750.95
2019-01-08T14:12:14.943Z,96733.48
2019-01-08T14:14:44.333Z,96751.08
2019-01-08T14:17:13.697Z,96744.14
2019-01-08T14:19:43.063Z,96742.88
2019-01-08T14:22:12.443Z,96742.26
2019-01-08T14:24:41.795Z,96744.18
2019-01-08T14:27:11.842Z,96749.25
2019-01-08T14:29:41.487Z,96748.54
2019-01-08T14:32:10.851Z,96739.05
2019-01-08T14:34:42.140Z,96744.73
2019-01-08T14:37:11.486Z,96731.91
2019-01-08T14:39:40.848Z,96731.27
2019-01-08T14:42:10.206Z,96745.47
2019-01-08T14:44:39.550Z,96738.52
2019-01-08T14:47:08.921Z,96752.43
2019-01-08T14:49:38.238Z,96750.67
2019-01-08T14:52:07.646Z,96740.92
2019-01-08T14:54:37.095Z,96739.91
2019-01-08T14:57:08.158Z,96736.93
2019-01-08T14:59:37.532Z,96737.66
2019-01-08T15:02:06.937Z,96731.87
2019-01-08T15:04:36.310Z,96711.76
2019-01-08T15:07:05.737Z,96726.68
2019-01-08T15:09:35.059Z,96722.25
2019-01-08T15:12:04.425Z,96715.27
2019-01-08T15:14:33.779Z,96700.89
2019-01-08T15:17:03.224Z,96709.72
2019-01-08T15:19:32.611Z,96700.42
2019-01-08T15:22:02.005Z,96691.72
2019-01-08T15:24:31.310Z,96685.80
2019-01-08T15:27:00.653Z,96692.77
2019-01-08T15:29:30.005Z,96689.66
2019-01-08T15:31:59.387Z,96688.99
2019-01-08T15:36:56.941Z,96694.83
2019-01-08T15:39:26.380Z,96689.35
2019-01-08T15:41:55.802Z,96691.48
2019-01-08T15:44:25.184Z,96688.27
2019-01-08T15:46:54.543Z,96695.23
2019-01-08T15:49:23.885Z,96698.92
2019-01-08T15:51:53.262Z,96692.95
2019-01-08T15:54:22.700Z,96681.30
2019-01-08T15:56:52.057Z,96691.94
2019-01-08T15:59:21.421Z,96684.74
2019-01-08T16:01:50.803Z,96679.45
2019-01-08T16:04:20.247Z,96689.47
2019-01-08T16:06:49.666Z,96687.68
2019-01-08T16:09:19.031Z,96685.37
2019-01-08T16:11:48.426Z,96684.92
2019-01-08T16:14:17.803Z,96696.44
2019-01-08T16:16:47.231Z,96685.38
2019-01-08T16:19:16.595Z,96684.89
2019-01-08T16:21:45.950Z,96684.45
2019-01-08T16:24:15.377Z,96679.73
2019-01-08T16:26:44.742Z,96670.89
2019-01-08T16:29:14.134Z,96686.50
2019-01-08T16:31:43.579Z,96678.92
2019-01-08T16:34:14.502Z,96678.00
2019-01-08T16:36:43.910Z,96668.84
2019-01-08T16:39:13.286Z,96682.05
2019-01-08T16:45:12.328Z,96671.64
2019-01-08T16:47:41.863Z,96667.19
2019-01-08T16:50:11.338Z,96681.67
2019-01-08T16:52:40.726Z,96666.45
2019-01-08T16:55:10.198Z,96674.62
2019-01-08T16:57:40.132Z,96667.47
2019-01-08T17:00:10.451Z,96676.70
2019-01-08T17:02:39.914Z,96678.98
2019-01-08T17:05:09.312Z,96679.25
2019-01-08T17:07:38.839Z,96677.50
2019-01-08T17:10:08.454Z,96675.71
2019-01-08T17:12:37.880Z,96672.83
2019-01-08T17:15:07.422Z,96675.08
2019-01-08T17:17:36.991Z,96674.81
2019-01-08T17:20:07.036Z,96671.46
2019-01-08T17:22:36.460Z,96667.53
2019-01-08T17:25:06.708Z,96661.21
2019-01-08T17:27:36.111Z,96668.11
2019-01-08T17:30:07.483Z,96661.43
2019-01-08T17:32:36.874Z,96653.03
2019-01-08T17:35:06.522Z,96646.97
2019-01-08T17:37:36.080Z,96640.25
2019-01-08T17:40:06.184Z,96639.91
2019-01-08T17:42:35.567Z,96634.98
2019-01-08T17:45:05.828Z,96642.54
2019-01-08T17:47:35.206Z,96625.87
2019-01-08T17:50:05.132Z,96637.45
2019-01-08T17:52:34.531Z,96629.44
2019-01-08T17:55:04.118Z,96641.09
2019-01-08T17:57:33.479Z,96645.95
2019-01-08T18:00:02.943Z,96628.75
2019-01-08T18:02:32.322Z,96651.78
2019-01-08T18:05:01.725Z,96643.78
2019-01-08T18:07:31.235Z,96644.25
2019-01-08T18:10:00.715Z,96634.50
2019-01-08T18:12:30.454Z,96637.09
2019-01-08T18:14:59.863Z,96646.02
2019-01-08T18:17:29.240Z,96637.30
2019-01-08T18:19:59.130Z,96649.19
2019-01-08T18:22:28.590Z,96648.44
2019-01-08T18:24:57.991Z,96639.14
2019-01-08T18:27:27.380Z,96639.42
2019-01-08T18:29:56.781Z,96643.52
2019-01-08T18:32:26.673Z,96649.36
2019-01-08T18:34:56.064Z,96649.37
2019-01-08T18:37:25.664Z,96634.13
2019-01-08T18:39:55.058Z,96632.66
2019-01-08T18:42:24.431Z,96646.95
2019-01-08T18:44:53.825Z,96634.61
2019-01-08T18:47:23.271Z,96636.86
2019-01-08T18:49:52.673Z,96634.25
2019-01-08T18:52:22.055Z,96642.28
2019-01-08T18:54:51.478Z,96627.03
2019-01-08T18:57:20.956Z,96617.48
2019-01-08T18:59:50.492Z,96623.30
2019-01-08T19:02:19.933Z,96617.48
2019-01-08T19:04:49.346Z,96629.64
2019-01-08T19:07:18.810Z,96642.29
2019-01-08T19:09:57.097Z,96633.30
2019-01-08T19:12:26.641Z,96636.36
2019-01-08T19:14:56.048Z,96638.63
2019-01-08T19:17:25.541Z,96631.83
2019-01-08T19:19:55.007Z,96627.97
2019-01-08T19:22:24.504Z,96632.98
2019-01-08T19:24:54.409Z,96614.98
2019-01-08T19:27:24.099Z,96624.99
2019-01-08T19:29:53.470Z,96614.72
2019-01-08T19:32:23.204Z,96629.03
2019-01-08T19:34:52.596Z,96623.87
2019-01-08T19:37:22.016Z,96621.10
2019-01-08T19:39:51.430Z,96632.54
2019-01-08T19:42:20.834Z,96618.89
2019-01-08T19:44:50.227Z,96623.95
2019-01-08T19:47:20.152Z,96622.66
2019-01-08T19:49:50.334Z,96613.98
2019-01-08T19:52:20.950Z,96615.55
2019-01-08T19:54:51.485Z,96612.31
2019-01-08T19:57:21.562Z,96615.88
2019-01-08T19:59:51.974Z,96614.75
2019-01-08T20:02:22.719Z,96607.27
2019-01-08T20:04:52.701Z,96617.22
2019-01-08T20:07:23.536Z,96616.98
2019-01-08T20:09:53.701Z,96628.14
2019-01-08T20:12:24.099Z,96631.64
2019-01-08T20:14:54.247Z,96625.66
2019-01-08T20:17:24.838Z,96619.80
2019-01-08T20:19:55.670Z,96619.19
2019-01-08T20:22:25.654Z,96630.66
2019-01-08T20:24:55.445Z,96628.14
2019-01-08T20:27:26.711Z,96631.16
2019-01-08T20:29:56.909Z,96626.88
2019-01-08T20:32:27.006Z,96613.12
2019-01-08T20:34:57.723Z,96631.27
2019-01-08T20:37:27.729Z,96632.21
2019-01-08T20:39:58.445Z,96622.42
2019-01-08T20:42:28.685Z,96629.55
2019-01-08T20:44:59.574Z,96605.30
2019-01-08T20:47:29.825Z,96618.92
2019-01-08T20:50:00.327Z,96614.12
2019-01-08T20:52:30.783Z,96622.98
2019-01-08T20:55:00.928Z,96617.78
2019-01-08T20:57:31.284Z,96616.75
2019-01-08T21:00:01.430Z,96621.59
2019-01-08T21:02:31.448Z,96614.30
2019-01-08T21:05:01.317Z,96615.29
2019-01-08T21:07:31.459Z,96602.44
2019-01-08T21:10:01.773Z,96600.17
2019-01-08T21:12:31.192Z,96603.80
2019-01-08T21:15:00.651Z,96596.19
2019-01-08T21:17:30.337Z,96592.61
2019-01-08T21:20:02.550Z,96584.99
2019-01-08T21:22:32.955Z,96584.10
2019-01-08T21:25:03.589Z,96582.52
2019-01-08T21:27:33.932Z,96573.33
2019-01-08T21:30:04.479Z,96578.84
2019-01-08T21:32:53.202Z,96569.23
2019-01-08T21:35:23.207Z,96576.42
2019-01-08T21:37:53.288Z,96570.04
2019-01-08T21:40:23.436Z,96569.77
2019-01-08T21:42:53.649Z,96560.11
2019-01-08T21:45:23.697Z,96559.38
2019-01-08T21:47:53.427Z,96565.06
2019-01-08T21:50:22.823Z,96549.75
2019-01-08T21:52:52.286Z,96556.83
2019-01-08T21:55:23.390Z,96552.02
2019-01-08T21:57:53.027Z,96555.91
2019-01-08T22:00:23.343Z,96559.33
2019-01-08T22:02:55.099Z,96550.03
2019-01-08T22:05:25.135Z,96554.41
2019-01-08T22:07:55.050Z,96550.53
2019-01-08T22:10:25.119Z,96537.45
2019-01-08T22:12:55.139Z,96540.06
2019-01-08T22:15:25.077Z,96537.39
2019-01-08T22:17:55.029Z,96536.68
2019-01-08T22:20:25.016Z,96529.02
2019-01-08T22:22:55.078Z,96532.73
2019-01-08T22:25:25.038Z,96528.72
2019-01-08T22:27:56.168Z,96514.94
2019-01-08T22:30:26.079Z,96527.02
2019-01-08T22:32:59.041Z,96535.52
2019-01-08T22:35:28.890Z,96530.19
2019-01-08T22:37:58.295Z,96530.88
2019-01-08T22:40:27.693Z,96536.30
2019-01-08T22:42:57.100Z,96516.42
2019-01-08T22:45:26.495Z,96528.52
2019-01-08T22:47:56.023Z,96527.36
2019-01-08T22:50:25.495Z,96525.91
2019-01-08T22:52:54.900Z,96526.58
2019-01-08T22:55:24.356Z,96518.10
2019-01-08T22:57:53.736Z,96533.59
2019-01-08T23:00:43.852Z,96525.94
2019-01-08T23:03:13.509Z,96528.78
2019-01-08T23:05:42.965Z,96513.97
2019-01-08T23:08:12.406Z,96519.34
2019-01-08T23:10:44.316Z,96508.23
2019-01-08T23:13:13.850Z,96519.41
2019-01-08T23:15:43.344Z,96520.40
2019-01-08T23:18:12.725Z,96506.77
2019-01-08T23:20:42.204Z,96498.39
2019-01-08T23:23:11.687Z,96503.16
2019-01-08T23:25:41.060Z,96498.97
2019-01-08T23:28:10.511Z,96508.03
2019-01-08T23:30:39.920Z,96502.37
2019-01-08T23:33:09.399Z,96509.02
2019-01-08T23:35:38.796Z,96507.96
2019-01-08T23:38:08.232Z,96496.56
2019-01-08T23:40:37.733Z,96508.00
2019-01-08T23:43:07.154Z,96506.98
2019-01-08T23:45:36.603Z,96485.38
2019-01-08T23:48:06.095Z,96492.19
2019-01-08T23:50:35.580Z,96486.20
2019-01-08T23:53:09.495Z,96475.69
2019-01-08T23:55:45.443Z,96485.95
2019-01-08T23:58:14.818Z,96485.22
